sensor_id;sensor_type;location;lat;lon;timestamp;pressure;altitude;pressure_sealevel;temperature;humidity
34103;BME280;20381;54.498;18.206;2023-04-01T00:00:58;97843.14;;;5.12;100.00
34103;BME280;20381;54.498;18.206;2023-04-01T00:03:25;97843.95;;;5.05;100.00
34103;BME280;20381;54.498;18.206;2023-04-01T00:05:55;97845.95;;;5.00;100.00
34103;BME280;20381;54.498;18.206;2023-04-01T00:08:23;97845.58;;;4.99;100.00
34103;BME280;20381;54.498;18.206;2023-04-01T00:10:49;97848.70;;;4.97;100.00
34103;BME280;20381;54.498;18.206;2023-04-01T00:13:16;97844.63;;;4.93;100.00
34103;BME280;20381;54.498;18.206;2023-04-01T00:15:43;97849.41;;;4.92;100.00
34103;BME280;20381;54.498;18.206;2023-04-01T00:18:09;97846.63;;;4.88;100.00
34103;BME280;20381;54.498;18.206;2023-04-01T00:20:36;97841.23;;;4.84;100.00
34103;BME280;20381;54.498;18.206;2023-04-01T00:23:02;97839.91;;;4.77;100.00
34103;BME280;20381;54.498;18.206;2023-04-01T00:25:29;97845.41;;;4.70;100.00
34103;BME280;20381;54.498;18.206;2023-04-01T00:27:55;97844.81;;;4.65;100.00
34103;BME280;20381;54.498;18.206;2023-04-01T00:30:22;97846.88;;;4.59;100.00
34103;BME280;20381;54.498;18.206;2023-04-01T00:32:53;97846.38;;;4.52;100.00
34103;BME280;20381;54.498;18.206;2023-04-01T00:35:19;97853.53;;;4.47;100.00
34103;BME280;20381;54.498;18.206;2023-04-01T00:37:46;97847.92;;;4.39;99.98
34103;BME280;20381;54.498;18.206;2023-04-01T00:40:31;97843.91;;;4.33;100.00
34103;BME280;20381;54.498;18.206;2023-04-01T00:42:58;97858.73;;;4.30;100.00
34103;BME280;20381;54.498;18.206;2023-04-01T00:45:34;97853.20;;;4.29;100.00
34103;BME280;20381;54.498;18.206;2023-04-01T00:48:04;97850.75;;;4.25;100.00
34103;BME280;20381;54.498;18.206;2023-04-01T00:50:31;97849.26;;;4.21;100.00
34103;BME280;20381;54.498;18.206;2023-04-01T00:53:00;97857.84;;;4.22;100.00
34103;BME280;20381;54.498;18.206;2023-04-01T00:55:29;97845.17;;;4.17;100.00
34103;BME280;20381;54.498;18.206;2023-04-01T00:57:57;97852.53;;;4.16;100.00
34103;BME280;20381;54.498;18.206;2023-04-01T01:00:25;97853.21;;;4.11;100.00
34103;BME280;20381;54.498;18.206;2023-04-01T01:02:52;97851.19;;;4.09;100.00
34103;BME280;20381;54.498;18.206;2023-04-01T01:05:21;97857.56;;;4.02;100.00
34103;BME280;20381;54.498;18.206;2023-04-01T01:07:56;97854.05;;;4.03;100.00
34103;BME280;20381;54.498;18.206;2023-04-01T01:10:35;97854.91;;;4.03;100.00
34103;BME280;20381;54.498;18.206;2023-04-01T01:16:24;97864.54;;;4.00;100.00
34103;BME280;20381;54.498;18.206;2023-04-01T01:32:30;97865.69;;;3.77;100.00
34103;BME280;20381;54.498;18.206;2023-04-01T01:35:10;97869.04;;;3.79;100.00
34103;BME280;20381;54.498;18.206;2023-04-01T01:37:32;97866.21;;;3.84;100.00
34103;BME280;20381;54.498;18.206;2023-04-01T01:40:02;97868.67;;;3.87;100.00
34103;BME280;20381;54.498;18.206;2023-04-01T01:42:31;97866.21;;;3.84;100.00
34103;BME280;20381;54.498;18.206;2023-04-01T01:44:59;97871.69;;;3.77;99.83
34103;BME280;20381;54.498;18.206;2023-04-01T01:47:29;97871.93;;;3.73;100.00
34103;BME280;20381;54.498;18.206;2023-04-01T01:49:57;97873.65;;;3.72;100.00
34103;BME280;20381;54.498;18.206;2023-04-01T01:52:24;97873.22;;;3.73;100.00
34103;BME280;20381;54.498;18.206;2023-04-01T01:54:54;97875.34;;;3.73;100.00
34103;BME280;20381;54.498;18.206;2023-04-01T01:57:32;97873.95;;;3.66;99.80
34103;BME280;20381;54.498;18.206;2023-04-01T01:59:58;97883.66;;;3.61;99.89
34103;BME280;20381;54.498;18.206;2023-04-01T02:02:25;97875.18;;;3.59;99.94
34103;BME280;20381;54.498;18.206;2023-04-01T02:04:54;97877.77;;;3.59;100.00
34103;BME280;20381;54.498;18.206;2023-04-01T02:07:27;97871.68;;;3.60;100.00
34103;BME280;20381;54.498;18.206;2023-04-01T02:09:53;97878.91;;;3.62;100.00
34103;BME280;20381;54.498;18.206;2023-04-01T02:12:21;97877.77;;;3.68;100.00
34103;BME280;20381;54.498;18.206;2023-04-01T02:14:52;97873.65;;;3.72;100.00
34103;BME280;20381;54.498;18.206;2023-04-01T02:17:22;97883.97;;;3.72;100.00
34103;BME280;20381;54.498;18.206;2023-04-01T02:19:57;97881.39;;;3.72;100.00
34103;BME280;20381;54.498;18.206;2023-04-01T02:22:37;97878.23;;;3.67;100.00
34103;BME280;20381;54.498;18.206;2023-04-01T02:25:10;97879.89;;;3.68;100.00
34103;BME280;20381;54.498;18.206;2023-04-01T02:27:38;97879.12;;;3.66;100.00
34103;BME280;20381;54.498;18.206;2023-04-01T02:30:07;97879.06;;;3.68;100.00
34103;BME280;20381;54.498;18.206;2023-04-01T02:32:33;97883.97;;;3.72;100.00
34103;BME280;20381;54.498;18.206;2023-04-01T02:35:06;97885.82;;;3.70;100.00
34103;BME280;20381;54.498;18.206;2023-04-01T02:37:33;97886.40;;;3.67;100.00
34103;BME280;20381;54.498;18.206;2023-04-01T02:40:05;97890.21;;;3.68;100.00
34103;BME280;20381;54.498;18.206;2023-04-01T02:42:33;97885.66;;;3.73;100.00
34103;BME280;20381;54.498;18.206;2023-04-01T02:45:00;97886.44;;;3.75;100.00
34103;BME280;20381;54.498;18.206;2023-04-01T02:47:26;97888.25;;;3.73;100.00
34103;BME280;20381;54.498;18.206;2023-04-01T02:49:52;97895.84;;;3.76;100.00
34103;BME280;20381;54.498;18.206;2023-04-01T02:52:20;97894.03;;;3.78;100.00
34103;BME280;20381;54.498;18.206;2023-04-01T02:54:46;97892.95;;;3.83;100.00
34103;BME280;20381;54.498;18.206;2023-04-01T02:57:13;97897.19;;;3.84;100.00
34103;BME280;20381;54.498;18.206;2023-04-01T02:59:39;97890.89;;;3.80;100.00
34103;BME280;20381;54.498;18.206;2023-04-01T03:02:05;97898.88;;;3.85;100.00
34103;BME280;20381;54.498;18.206;2023-04-01T03:04:32;97901.47;;;3.85;100.00
34103;BME280;20381;54.498;18.206;2023-04-01T03:06:59;97897.90;;;3.87;100.00
34103;BME280;20381;54.498;18.206;2023-04-01T03:09:25;97904.41;;;3.86;100.00
34103;BME280;20381;54.498;18.206;2023-04-01T03:11:51;97897.44;;;3.79;100.00
34103;BME280;20381;54.498;18.206;2023-04-01T03:14:17;97900.70;;;3.83;100.00
34103;BME280;20381;54.498;18.206;2023-04-01T03:16:44;97903.89;;;3.88;100.00
34103;BME280;20381;54.498;18.206;2023-04-01T03:19:10;97899.50;;;3.90;100.00
34103;BME280;20381;54.498;18.206;2023-04-01T03:21:37;97900.23;;;3.92;100.00
34103;BME280;20381;54.498;18.206;2023-04-01T03:24:04;97900.08;;;3.95;100.00
34103;BME280;20381;54.498;18.206;2023-04-01T03:26:30;97908.44;;;4.00;100.00
34103;BME280;20381;54.498;18.206;2023-04-01T03:28:57;97909.00;;;3.98;100.00
34103;BME280;20381;54.498;18.206;2023-04-01T03:31:23;97917.88;;;4.01;100.00
34103;BME280;20381;54.498;18.206;2023-04-01T03:33:51;97916.19;;;4.00;100.00
34103;BME280;20381;54.498;18.206;2023-04-01T03:36:17;97919.08;;;4.02;100.00
34103;BME280;20381;54.498;18.206;2023-04-01T03:38:46;97919.54;;;4.02;100.00
34103;BME280;20381;54.498;18.206;2023-04-01T03:41:15;97928.05;;;4.04;100.00
34103;BME280;20381;54.498;18.206;2023-04-01T03:43:42;97925.31;;;4.07;100.00
34103;BME280;20381;54.498;18.206;2023-04-01T03:46:09;97924.80;;;4.09;100.00
34103;BME280;20381;54.498;18.206;2023-04-01T03:48:36;97926.09;;;4.09;100.00
34103;BME280;20381;54.498;18.206;2023-04-01T03:51:07;97920.92;;;4.09;100.00
34103;BME280;20381;54.498;18.206;2023-04-01T03:53:33;97925.16;;;4.10;100.00
34103;BME280;20381;54.498;18.206;2023-04-01T03:56:04;97927.66;;;4.03;100.00
34103;BME280;20381;54.498;18.206;2023-04-01T03:58:31;97928.95;;;4.03;100.00
34103;BME280;20381;54.498;18.206;2023-04-01T04:00:57;97923.20;;;3.98;100.00
34103;BME280;20381;54.498;18.206;2023-04-01T04:03:23;97929.56;;;3.99;100.00
34103;BME280;20381;54.498;18.206;2023-04-01T04:05:49;97925.38;;;3.97;100.00
34103;BME280;20381;54.498;18.206;2023-04-01T04:08:16;97925.91;;;3.95;100.00
34103;BME280;20381;54.498;18.206;2023-04-01T04:10:43;97935.34;;;3.96;100.00
34103;BME280;20381;54.498;18.206;2023-04-01T04:13:09;97937.77;;;3.99;100.00
34103;BME280;20381;54.498;18.206;2023-04-01T04:15:36;97940.97;;;4.04;100.00
34103;BME280;20381;54.498;18.206;2023-04-01T04:18:02;97938.59;;;4.08;100.00
34103;BME280;20381;54.498;18.206;2023-04-01T04:20:28;97941.27;;;4.07;100.00
34103;BME280;20381;54.498;18.206;2023-04-01T04:22:54;97942.47;;;4.08;100.00
34103;BME280;20381;54.498;18.206;2023-04-01T04:25:21;97942.11;;;4.07;100.00
34103;BME280;20381;54.498;18.206;2023-04-01T04:27:47;97941.70;;;4.06;100.00
34103;BME280;20381;54.498;18.206;2023-04-01T04:30:14;97936.17;;;4.05;100.00
34103;BME280;20381;54.498;18.206;2023-04-01T04:32:41;97945.58;;;4.06;100.00
34103;BME280;20381;54.498;18.206;2023-04-01T04:35:08;97941.95;;;4.10;100.00
34103;BME280;20381;54.498;18.206;2023-04-01T04:37:35;97944.91;;;4.11;100.00
34103;BME280;20381;54.498;18.206;2023-04-01T04:40:01;97944.69;;;4.07;100.00
34103;BME280;20381;54.498;18.206;2023-04-01T04:42:27;97947.95;;;4.02;100.00
34103;BME280;20381;54.498;18.206;2023-04-01T04:44:54;97950.37;;;4.05;100.00
34103;BME280;20381;54.498;18.206;2023-04-01T04:47:20;97951.52;;;3.99;100.00
34103;BME280;20381;54.498;18.206;2023-04-01T04:49:46;97943.86;;;3.98;100.00
34103;BME280;20381;54.498;18.206;2023-04-01T04:52:13;97945.98;;;3.90;100.00
34103;BME280;20381;54.498;18.206;2023-04-01T04:54:39;97946.55;;;3.86;100.00
34103;BME280;20381;54.498;18.206;2023-04-01T04:57:05;97952.33;;;3.83;100.00
34103;BME280;20381;54.498;18.206;2023-04-01T04:59:31;97936.63;;;3.87;100.00
34103;BME280;20381;54.498;18.206;2023-04-01T05:01:58;97953.09;;;3.85;100.00
34103;BME280;20381;54.498;18.206;2023-04-01T05:04:24;97952.58;;;3.87;100.00
34103;BME280;20381;54.498;18.206;2023-04-01T05:06:51;97949.84;;;3.90;100.00
34103;BME280;20381;54.498;18.206;2023-04-01T05:09:17;97960.55;;;3.91;100.00
34103;BME280;20381;54.498;18.206;2023-04-01T05:11:44;97961.31;;;3.93;100.00
34103;BME280;20381;54.498;18.206;2023-04-01T05:14:15;97958.43;;;3.99;100.00
34103;BME280;20381;54.498;18.206;2023-04-01T05:16:41;97961.53;;;4.06;100.00
34103;BME280;20381;54.498;18.206;2023-04-01T05:19:08;97964.83;;;4.09;100.00
34103;BME280;20381;54.498;18.206;2023-04-01T05:21:34;97967.16;;;4.05;100.00
34103;BME280;20381;54.498;18.206;2023-04-01T05:24:00;97969.38;;;4.04;100.00
34103;BME280;20381;54.498;18.206;2023-04-01T05:26:26;97976.66;;;4.04;100.00
34103;BME280;20381;54.498;18.206;2023-04-01T05:28:52;97971.03;;;4.05;100.00
34103;BME280;20381;54.498;18.206;2023-04-01T05:31:19;97977.49;;;4.05;100.00
34103;BME280;20381;54.498;18.206;2023-04-01T05:33:45;97974.55;;;4.04;100.00
34103;BME280;20381;54.498;18.206;2023-04-01T05:36:16;97977.74;;;4.09;100.00
34103;BME280;20381;54.498;18.206;2023-04-01T05:38:41;97980.39;;;4.16;100.00
34103;BME280;20381;54.498;18.206;2023-04-01T05:41:10;97981.31;;;4.15;100.00
34103;BME280;20381;54.498;18.206;2023-04-01T05:43:37;97993.70;;;4.17;100.00
34103;BME280;20381;54.498;18.206;2023-04-01T05:46:03;97988.44;;;4.10;100.00
34103;BME280;20381;54.498;18.206;2023-04-01T05:48:30;97979.70;;;4.04;100.00
34103;BME280;20381;54.498;18.206;2023-04-01T05:50:56;97996.69;;;3.91;100.00
34103;BME280;20381;54.498;18.206;2023-04-01T05:53:25;98000.05;;;3.93;100.00
34103;BME280;20381;54.498;18.206;2023-04-01T05:55:52;97998.83;;;4.00;100.00
34103;BME280;20381;54.498;18.206;2023-04-01T05:58:21;97999.23;;;4.10;100.00
34103;BME280;20381;54.498;18.206;2023-04-01T06:00:47;98004.16;;;4.14;100.00
34103;BME280;20381;54.498;18.206;2023-04-01T06:03:14;97999.61;;;4.19;100.00
34103;BME280;20381;54.498;18.206;2023-04-01T06:05:42;98009.73;;;4.24;100.00
34103;BME280;20381;54.498;18.206;2023-04-01T06:08:18;98003.95;;;4.28;100.00
34103;BME280;20381;54.498;18.206;2023-04-01T06:10:59;98008.44;;;4.33;100.00
34103;BME280;20381;54.498;18.206;2023-04-01T06:13:50;98014.38;;;4.35;100.00
34103;BME280;20381;54.498;18.206;2023-04-01T06:16:25;98010.72;;;4.39;100.00
34103;BME280;20381;54.498;18.206;2023-04-01T06:24:49;98020.00;;;4.43;100.00
34103;BME280;20381;54.498;18.206;2023-04-01T06:30:34;98023.62;;;4.21;100.00
34103;BME280;20381;54.498;18.206;2023-04-01T06:38:59;98041.54;;;4.07;100.00
34103;BME280;20381;54.498;18.206;2023-04-01T06:41:32;98033.85;;;4.06;100.00
34103;BME280;20381;54.498;18.206;2023-04-01T06:57:51;98062.72;;;4.05;100.00
34103;BME280;20381;54.498;18.206;2023-04-01T07:00:32;98066.74;;;4.02;100.00
34103;BME280;20381;54.498;18.206;2023-04-01T07:03:19;98070.25;;;4.01;100.00
34103;BME280;20381;54.498;18.206;2023-04-01T07:05:45;98065.08;;;4.01;100.00
34103;BME280;20381;54.498;18.206;2023-04-01T07:08:23;98075.59;;;3.88;100.00
34103;BME280;20381;54.498;18.206;2023-04-01T07:10:53;98071.87;;;3.85;100.00
34103;BME280;20381;54.498;18.206;2023-04-01T07:13:27;98091.75;;;3.83;100.00
34103;BME280;20381;54.498;18.206;2023-04-01T07:18:58;98091.66;;;3.75;100.00
34103;BME280;20381;54.498;18.206;2023-04-01T07:21:36;98096.13;;;3.80;100.00
34103;BME280;20381;54.498;18.206;2023-04-01T07:24:13;98096.85;;;3.84;100.00
34103;BME280;20381;54.498;18.206;2023-04-01T07:26:39;98094.24;;;3.75;100.00
34103;BME280;20381;54.498;18.206;2023-04-01T07:29:14;98097.22;;;3.66;100.00
34103;BME280;20381;54.498;18.206;2023-04-01T07:34:28;98099.54;;;3.43;100.00
34103;BME280;20381;54.498;18.206;2023-04-01T07:37:12;98104.65;;;3.45;100.00
34103;BME280;20381;54.498;18.206;2023-04-01T07:39:59;98105.39;;;3.47;100.00
34103;BME280;20381;54.498;18.206;2023-04-01T07:50:29;98122.67;;;3.55;100.00
34103;BME280;20381;54.498;18.206;2023-04-01T07:53:12;98125.75;;;3.63;100.00
34103;BME280;20381;54.498;18.206;2023-04-01T07:58:44;98139.16;;;3.61;100.00
34103;BME280;20381;54.498;18.206;2023-04-01T08:07:10;98148.56;;;3.53;100.00
34103;BME280;20381;54.498;18.206;2023-04-01T08:09:42;98143.31;;;3.55;100.00
34103;BME280;20381;54.498;18.206;2023-04-01T08:17:44;98158.94;;;3.42;100.00
34103;BME280;20381;54.498;18.206;2023-04-01T08:20:25;98155.06;;;3.52;100.00
34103;BME280;20381;54.498;18.206;2023-04-01T08:23:00;98163.81;;;3.68;100.00
34103;BME280;20381;54.498;18.206;2023-04-01T08:25:29;98164.17;;;3.79;100.00
34103;BME280;20381;54.498;18.206;2023-04-01T08:30:49;98168.61;;;4.05;100.00
34103;BME280;20381;54.498;18.206;2023-04-01T08:38:29;98179.60;;;4.00;100.00
34103;BME280;20381;54.498;18.206;2023-04-01T08:41:00;98181.65;;;4.12;100.00
34103;BME280;20381;54.498;18.206;2023-04-01T08:51:39;98198.23;;;4.25;100.00
34103;BME280;20381;54.498;18.206;2023-04-01T08:57:31;98205.27;;;4.13;100.00
34103;BME280;20381;54.498;18.206;2023-04-01T09:11:25;98220.63;;;4.35;100.00
34103;BME280;20381;54.498;18.206;2023-04-01T09:25:22;98226.69;;;4.81;100.00
34103;BME280;20381;54.498;18.206;2023-04-01T09:28:17;98229.02;;;5.04;100.00
34103;BME280;20381;54.498;18.206;2023-04-01T09:30:59;98228.04;;;5.15;100.00
34103;BME280;20381;54.498;18.206;2023-04-01T09:36:21;98241.18;;;5.02;99.97
34103;BME280;20381;54.498;18.206;2023-04-01T09:45:01;98246.37;;;5.37;100.00
34103;BME280;20381;54.498;18.206;2023-04-01T09:47:31;98250.09;;;5.40;100.00
34103;BME280;20381;54.498;18.206;2023-04-01T09:50:14;98260.85;;;5.41;100.00
34103;BME280;20381;54.498;18.206;2023-04-01T09:58:30;98254.80;;;5.14;100.00
34103;BME280;20381;54.498;18.206;2023-04-01T10:01:25;98270.11;;;5.10;100.00
34103;BME280;20381;54.498;18.206;2023-04-01T10:41:23;98309.50;;;4.41;100.00
34103;BME280;20381;54.498;18.206;2023-04-01T10:49:43;98314.98;;;4.54;100.00
34103;BME280;20381;54.498;18.206;2023-04-01T11:22:24;98339.27;;;4.50;100.00
34103;BME280;20381;54.498;18.206;2023-04-01T11:27:51;98354.58;;;4.55;100.00
34103;BME280;20381;54.498;18.206;2023-04-01T11:43:47;98370.09;;;4.15;99.75
34103;BME280;20381;54.498;18.206;2023-04-01T11:46:22;98376.92;;;4.16;100.00
34103;BME280;20381;54.498;18.206;2023-04-01T11:49:00;98379.39;;;4.09;99.89
34103;BME280;20381;54.498;18.206;2023-04-01T12:03:00;98403.54;;;3.98;99.87
34103;BME280;20381;54.498;18.206;2023-04-01T12:05:33;98397.98;;;4.07;100.00
34103;BME280;20381;54.498;18.206;2023-04-01T12:16:47;98406.30;;;3.93;100.00
34103;BME280;20381;54.498;18.206;2023-04-01T12:24:36;98423.27;;;3.78;100.00
34103;BME280;20381;54.498;18.206;2023-04-01T12:33:01;98418.28;;;3.74;100.00
34103;BME280;20381;54.498;18.206;2023-04-01T12:35:39;98414.95;;;3.60;100.00
34103;BME280;20381;54.498;18.206;2023-04-01T12:38:04;98435.89;;;3.64;100.00
34103;BME280;20381;54.498;18.206;2023-04-01T12:41:02;98430.61;;;3.67;100.00
34103;BME280;20381;54.498;18.206;2023-04-01T12:43:58;98428.66;;;3.72;100.00
34103;BME280;20381;54.498;18.206;2023-04-01T13:00:48;98451.38;;;3.64;99.94
34103;BME280;20381;54.498;18.206;2023-04-01T13:11:39;98475.06;;;3.52;100.00
34103;BME280;20381;54.498;18.206;2023-04-01T13:22:24;98486.98;;;3.32;100.00
34103;BME280;20381;54.498;18.206;2023-04-01T13:25:10;98486.25;;;3.41;100.00
34103;BME280;20381;54.498;18.206;2023-04-01T13:27:37;98498.22;;;3.31;100.00
34103;BME280;20381;54.498;18.206;2023-04-01T13:46:47;98509.95;;;3.62;100.00
34103;BME280;20381;54.498;18.206;2023-04-01T13:52:03;98518.42;;;3.66;99.99
34103;BME280;20381;54.498;18.206;2023-04-01T14:03:33;98521.41;;;3.08;99.63
34103;BME280;20381;54.498;18.206;2023-04-01T14:06:23;98537.45;;;2.93;99.77
34103;BME280;20381;54.498;18.206;2023-04-01T14:11:45;98531.83;;;2.81;99.79
34103;BME280;20381;54.498;18.206;2023-04-01T14:25:35;98564.38;;;2.59;100.00
34103;BME280;20381;54.498;18.206;2023-04-01T14:37:03;98566.42;;;2.74;100.00
34103;BME280;20381;54.498;18.206;2023-04-01T14:39:56;98567.44;;;2.70;100.00
34103;BME280;20381;54.498;18.206;2023-04-01T14:50:55;98596.59;;;2.45;100.00
34103;BME280;20381;54.498;18.206;2023-04-01T14:55:55;98580.59;;;2.36;100.00
34103;BME280;20381;54.498;18.206;2023-04-01T14:58:39;98596.99;;;2.33;100.00
34103;BME280;20381;54.498;18.206;2023-04-01T15:15:44;98610.91;;;2.54;100.00
34103;BME280;20381;54.498;18.206;2023-04-01T15:17:59;98617.80;;;2.54;100.00
34103;BME280;20381;54.498;18.206;2023-04-01T15:26:14;98632.86;;;2.39;100.00
34103;BME280;20381;54.498;18.206;2023-04-01T15:39:01;98645.03;;;2.34;100.00
34103;BME280;20381;54.498;18.206;2023-04-01T15:45:11;98656.33;;;2.43;100.00
34103;BME280;20381;54.498;18.206;2023-04-01T15:47:32;98660.03;;;2.50;100.00
34103;BME280;20381;54.498;18.206;2023-04-01T15:55:25;98675.08;;;2.35;100.00
34103;BME280;20381;54.498;18.206;2023-04-01T16:03:59;98683.96;;;2.25;100.00
34103;BME280;20381;54.498;18.206;2023-04-01T16:06:35;98694.45;;;2.19;100.00
34103;BME280;20381;54.498;18.206;2023-04-01T16:09:09;98694.03;;;2.18;100.00
34103;BME280;20381;54.498;18.206;2023-04-01T16:20:24;98701.92;;;2.27;100.00
34103;BME280;20381;54.498;18.206;2023-04-01T16:25:49;98725.27;;;2.22;100.00
34103;BME280;20381;54.498;18.206;2023-04-01T16:28:36;98720.11;;;2.22;100.00
34103;BME280;20381;54.498;18.206;2023-04-01T16:34:14;98728.55;;;2.27;100.00
34103;BME280;20381;54.498;18.206;2023-04-01T16:36:45;98740.62;;;2.25;100.00
34103;BME280;20381;54.498;18.206;2023-04-01T16:47:33;98753.69;;;2.19;99.94
34103;BME280;20381;54.498;18.206;2023-04-01T16:55:50;98766.47;;;2.22;100.00
34103;BME280;20381;54.498;18.206;2023-04-01T16:58:36;98767.19;;;2.27;100.00
34103;BME280;20381;54.498;18.206;2023-04-01T17:01:09;98774.02;;;2.28;100.00
34103;BME280;20381;54.498;18.206;2023-04-01T17:03:46;98777.52;;;2.26;100.00
34103;BME280;20381;54.498;18.206;2023-04-01T17:17:49;98786.36;;;2.17;100.00
34103;BME280;20381;54.498;18.206;2023-04-01T17:31:37;98813.13;;;2.11;100.00
34103;BME280;20381;54.498;18.206;2023-04-01T17:34:26;98807.71;;;2.20;100.00
34103;BME280;20381;54.498;18.206;2023-04-01T17:56:28;98860.96;;;2.04;100.00
34103;BME280;20381;54.498;18.206;2023-04-01T18:04:31;98867.31;;;2.07;100.00
34103;BME280;20381;54.498;18.206;2023-04-01T18:10:37;98868.86;;;2.14;100.00
34103;BME280;20381;54.498;18.206;2023-04-01T18:13:05;98874.95;;;2.10;100.00
34103;BME280;20381;54.498;18.206;2023-04-01T18:18:46;98881.26;;;2.16;100.00
34103;BME280;20381;54.498;18.206;2023-04-01T18:27:01;98892.84;;;2.16;100.00
34103;BME280;20381;54.498;18.206;2023-04-01T18:29:53;98891.14;;;2.15;100.00
34103;BME280;20381;54.498;18.206;2023-04-01T18:32:35;98893.63;;;2.18;100.00
34103;BME280;20381;54.498;18.206;2023-04-01T18:35:19;98902.25;;;2.17;100.00
34103;BME280;20381;54.498;18.206;2023-04-01T18:40:35;98902.42;;;2.11;100.00
34103;BME280;20381;54.498;18.206;2023-04-01T18:43:12;98904.09;;;2.12;100.00
34103;BME280;20381;54.498;18.206;2023-04-01T18:45:49;98904.48;;;2.13;100.00
34103;BME280;20381;54.498;18.206;2023-04-01T18:48:33;98915.21;;;2.14;100.00
34103;BME280;20381;54.498;18.206;2023-04-01T18:51:13;98907.34;;;2.18;100.00
34103;BME280;20381;54.498;18.206;2023-04-01T18:53:40;98918.52;;;2.19;100.00
34103;BME280;20381;54.498;18.206;2023-04-01T18:56:51;98909.78;;;2.24;100.00
34103;BME280;20381;54.498;18.206;2023-04-01T18:59:45;98925.19;;;2.26;100.00
34103;BME280;20381;54.498;18.206;2023-04-01T19:01:37;98926.47;;;2.26;100.00
34103;BME280;20381;54.498;18.206;2023-04-01T19:04:10;98923.89;;;2.26;100.00
34103;BME280;20381;54.498;18.206;2023-04-01T19:06:52;98923.81;;;2.29;100.00
34103;BME280;20381;54.498;18.206;2023-04-01T19:09:49;98928.02;;;2.33;100.00
34103;BME280;20381;54.498;18.206;2023-04-01T19:18:08;98938.77;;;2.33;99.77
34103;BME280;20381;54.498;18.206;2023-04-01T19:20:41;98945.57;;;2.35;99.73
34103;BME280;20381;54.498;18.206;2023-04-01T19:26:09;98955.52;;;2.33;99.82
34103;BME280;20381;54.498;18.206;2023-04-01T19:28:59;98954.33;;;2.28;99.65
34103;BME280;20381;54.498;18.206;2023-04-01T19:39:53;98962.06;;;2.28;99.99
34103;BME280;20381;54.498;18.206;2023-04-01T19:55:52;98979.54;;;2.15;99.77
34103;BME280;20381;54.498;18.206;2023-04-01T20:01:00;98986.03;;;2.14;99.22
34103;BME280;20381;54.498;18.206;2023-04-01T20:04:08;98974.28;;;2.20;99.87
34103;BME280;20381;54.498;18.206;2023-04-01T20:06:23;98975.73;;;2.14;99.59
34103;BME280;20381;54.498;18.206;2023-04-01T20:17:16;99012.26;;;2.12;99.46
34103;BME280;20381;54.498;18.206;2023-04-01T20:20:30;99002.02;;;2.10;98.93
34103;BME280;20381;54.498;18.206;2023-04-01T20:24:47;99014.89;;;2.10;98.93
34103;BME280;20381;54.498;18.206;2023-04-01T20:27:21;99019.09;;;2.13;98.28
34103;BME280;20381;54.498;18.206;2023-04-01T20:32:39;99021.80;;;2.08;98.63
34103;BME280;20381;54.498;18.206;2023-04-01T20:35:25;99002.85;;;2.11;99.09
34103;BME280;20381;54.498;18.206;2023-04-01T20:46:00;99037.17;;;2.11;98.55
34103;BME280;20381;54.498;18.206;2023-04-01T20:51:29;99051.03;;;2.06;98.46
34103;BME280;20381;54.498;18.206;2023-04-01T20:59:35;99056.04;;;2.12;98.77
34103;BME280;20381;54.498;18.206;2023-04-01T21:19:25;99077.13;;;1.90;98.65
34103;BME280;20381;54.498;18.206;2023-04-01T21:24:39;99079.37;;;1.86;98.27
34103;BME280;20381;54.498;18.206;2023-04-01T21:35:37;99087.35;;;1.54;98.97
34103;BME280;20381;54.498;18.206;2023-04-01T21:41:15;99077.91;;;1.55;98.89
34103;BME280;20381;54.498;18.206;2023-04-01T22:00:11;99106.22;;;1.53;99.25
34103;BME280;20381;54.498;18.206;2023-04-01T22:08:32;99112.17;;;1.57;99.43
34103;BME280;20381;54.498;18.206;2023-04-01T22:10:59;99116.45;;;1.56;99.37
34103;BME280;20381;54.498;18.206;2023-04-01T22:13:50;99115.06;;;1.63;99.46
34103;BME280;20381;54.498;18.206;2023-04-01T22:22:06;99122.36;;;1.62;99.56
34103;BME280;20381;54.498;18.206;2023-04-01T22:32:47;99139.67;;;1.53;99.71
34103;BME280;20381;54.498;18.206;2023-04-01T22:35:32;99139.55;;;1.60;99.88
34103;BME280;20381;54.498;18.206;2023-04-01T22:43:39;99150.80;;;1.54;99.72
34103;BME280;20381;54.498;18.206;2023-04-01T22:46:13;99153.30;;;1.59;99.89
34103;BME280;20381;54.498;18.206;2023-04-01T22:48:57;99158.57;;;1.52;99.69
34103;BME280;20381;54.498;18.206;2023-04-01T22:56:49;99156.89;;;1.51;99.85
34103;BME280;20381;54.498;18.206;2023-04-01T22:59:19;99157.88;;;1.44;99.63
34103;BME280;20381;54.498;18.206;2023-04-01T23:01:58;99157.88;;;1.44;99.82
34103;BME280;20381;54.498;18.206;2023-04-01T23:04:29;99162.95;;;1.47;100.00
34103;BME280;20381;54.498;18.206;2023-04-01T23:06:54;99168.03;;;1.50;99.93
34103;BME280;20381;54.498;18.206;2023-04-01T23:09:26;99167.26;;;1.47;99.78
34103;BME280;20381;54.498;18.206;2023-04-01T23:12:02;99164.30;;;1.44;99.82
34103;BME280;20381;54.498;18.206;2023-04-01T23:15:04;99181.02;;;1.44;99.87
34103;BME280;20381;54.498;18.206;2023-04-01T23:19:57;99182.94;;;1.34;99.59
34103;BME280;20381;54.498;18.206;2023-04-01T23:22:33;99190.72;;;1.30;99.68
34103;BME280;20381;54.498;18.206;2023-04-01T23:25:27;99184.69;;;1.31;99.87
34103;BME280;20381;54.498;18.206;2023-04-01T23:33:19;99197.28;;;1.22;100.00
34103;BME280;20381;54.498;18.206;2023-04-01T23:36:13;99203.31;;;1.21;99.90
34103;BME280;20381;54.498;18.206;2023-04-01T23:38:41;99196.00;;;1.22;100.00
34103;BME280;20381;54.498;18.206;2023-04-01T23:41:26;99190.90;;;1.21;99.96
34103;BME280;20381;54.498;18.206;2023-04-01T23:44:00;99205.39;;;1.25;99.91
34103;BME280;20381;54.498;18.206;2023-04-01T23:46:27;99195.21;;;1.19;99.75
34103;BME280;20381;54.498;18.206;2023-04-01T23:48:55;99203.84;;;1.15;99.80